Time;durP1;ratioP1;P1;durP2;ratioP2;P2;SDS_P1;SDS_P2;PMS_P1;PMS_P2;Temp;Humidity;BMP_temperature;BMP_pressure;BME280_temperature;BME280_humidity;BME280_pressure;Samples;Min_cycle;Max_cycle;Signal;HPM_P1;HPM_P2
2021/11/04 00:02:28;;;;;;;39.80;9.82;;;;;;;;;;4935960;29;20487;-75
2021/11/04 00:04:55;;;;;;;52.50;10.23;;;;;;;;;;4936426;29;20126;-73
2021/11/04 00:07:24;;;;;;;57.40;10.48;;;;;;;;;;4919282;29;20040;-75
2021/11/04 00:09:52;;;;;;;48.53;10.50;;;;;;;;;;4935959;29;20046;-75
2021/11/04 00:12:20;;;;;;;45.03;11.00;;;;;;;;;;4918992;29;20396;-75
2021/11/04 00:14:47;;;;;;;37.10;10.38;;;;;;;;;;4935910;29;20497;-75
2021/11/04 00:17:16;;;;;;;47.33;10.60;;;;;;;;;;4918544;29;20409;-75
2021/11/04 00:19:45;;;;;;;41.60;11.02;;;;;;;;;;4919207;29;20436;-75
2021/11/04 00:22:13;;;;;;;55.25;12.45;;;;;;;;;;4935843;29;20489;-73
2021/11/04 00:24:43;;;;;;;44.33;10.80;;;;;;;;;;4935792;29;20039;-75
2021/11/04 00:27:11;;;;;;;56.83;10.45;;;;;;;;;;4935781;29;20074;-72
2021/11/04 00:29:45;;;;;;;42.67;10.38;;;;;;;;;;4935926;29;20074;-75
2021/11/04 00:32:13;;;;;;;48.17;12.55;;;;;;;;;;4934855;29;20073;-75
2021/11/04 00:34:42;;;;;;;50.55;11.27;;;;;;;;;;4935429;29;20079;-75
2021/11/04 00:37:09;;;;;;;51.78;11.30;;;;;;;;;;4918687;29;20047;-75
2021/11/04 00:39:41;;;;;;;44.38;10.68;;;;;;;;;;4935395;29;20075;-75
2021/11/04 00:42:09;;;;;;;51.05;11.13;;;;;;;;;;4935937;29;20048;-74
2021/11/04 00:44:38;;;;;;;47.67;9.80;;;;;;;;;;4935949;29;20127;-72
2021/11/04 00:47:06;;;;;;;50.65;11.13;;;;;;;;;;4935249;29;20039;-75
2021/11/04 00:49:36;;;;;;;44.08;10.02;;;;;;;;;;4918677;29;20557;-75
2021/11/04 00:52:04;;;;;;;58.15;11.27;;;;;;;;;;4935516;29;20044;-75
2021/11/04 00:54:32;;;;;;;47.45;11.18;;;;;;;;;;4935683;29;20398;-75
2021/11/04 00:57:02;;;;;;;54.08;11.02;;;;;;;;;;4935838;29;20131;-75
2021/11/04 00:59:29;;;;;;;62.90;11.98;;;;;;;;;;4935393;29;20055;-75
2021/11/04 01:01:56;;;;;;;45.08;10.43;;;;;;;;;;4902702;29;20056;-75
2021/11/04 01:04:24;;;;;;;49.38;11.68;;;;;;;;;;4935710;29;20075;-72
2021/11/04 01:06:53;;;;;;;44.10;11.10;;;;;;;;;;4918263;29;20036;-75
2021/11/04 01:09:20;;;;;;;58.97;11.05;;;;;;;;;;4935538;29;20497;-75
2021/11/04 01:11:50;;;;;;;54.83;11.43;;;;;;;;;;4935558;29;20450;-73
2021/11/04 01:14:17;;;;;;;53.28;11.05;;;;;;;;;;4935468;29;20049;-73
2021/11/04 01:16:45;;;;;;;57.10;10.52;;;;;;;;;;4935277;29;20044;-75
2021/11/04 01:19:15;;;;;;;60.42;10.05;;;;;;;;;;4935160;29;20048;-73
2021/11/04 01:21:45;;;;;;;58.45;11.25;;;;;;;;;;4918399;29;20054;-72
2021/11/04 01:24:16;;;;;;;59.35;11.98;;;;;;;;;;4918516;29;20051;-73
2021/11/04 01:26:43;;;;;;;48.70;11.25;;;;;;;;;;4918298;29;20135;-75
2021/11/04 01:29:11;;;;;;;49.20;11.07;;;;;;;;;;4934553;29;20046;-75
2021/11/04 01:31:41;;;;;;;45.45;10.43;;;;;;;;;;4935223;29;20051;-72
2021/11/04 01:34:09;;;;;;;61.13;11.80;;;;;;;;;;4935079;29;20481;-72
2021/11/04 01:36:36;;;;;;;48.50;10.80;;;;;;;;;;4918538;29;20143;-74
2021/11/04 01:39:07;;;;;;;34.97;10.80;;;;;;;;;;4935371;29;20079;-75
2021/11/04 01:41:35;;;;;;;55.03;11.32;;;;;;;;;;4918153;29;20107;-72
2021/11/04 01:44:03;;;;;;;50.83;10.68;;;;;;;;;;4917840;29;20062;-72
2021/11/04 01:46:30;;;;;;;54.78;11.23;;;;;;;;;;4938341;29;20046;-75
2021/11/04 01:49:00;;;;;;;39.55;10.07;;;;;;;;;;4921464;29;20413;-75
2021/11/04 01:51:27;;;;;;;33.70;9.77;;;;;;;;;;4905634;29;20040;-75
2021/11/04 01:53:56;;;;;;;39.55;9.82;;;;;;;;;;4905875;29;20044;-72
2021/11/04 01:56:25;;;;;;;44.53;10.15;;;;;;;;;;4935942;29;20047;-73
2021/11/04 01:58:52;;;;;;;41.95;9.60;;;;;;;;;;4921483;29;20417;-75
2021/11/04 02:01:24;;;;;;;48.47;9.63;;;;;;;;;;4938679;29;20503;-75
2021/11/04 02:03:51;;;;;;;48.13;10.15;;;;;;;;;;4921764;29;20071;-74
2021/11/04 02:06:33;;;;;;;42.22;9.10;;;;;;;;;;4938238;29;20098;-72
2021/11/04 02:09:10;;;;;;;53.05;10.15;;;;;;;;;;4921156;29;20044;-74
2021/11/04 02:11:40;;;;;;;46.53;10.13;;;;;;;;;;4920959;29;20044;-73
2021/11/04 02:14:12;;;;;;;45.58;10.20;;;;;;;;;;4920901;29;20123;-75
2021/11/04 02:16:40;;;;;;;52.50;10.80;;;;;;;;;;4938332;29;20437;-73
2021/11/04 02:19:16;;;;;;;48.95;10.63;;;;;;;;;;4938158;29;20189;-75
2021/11/04 02:21:56;;;;;;;47.50;9.68;;;;;;;;;;4937943;29;20055;-76
2021/11/04 02:24:37;;;;;;;57.70;10.98;;;;;;;;;;4905449;29;20054;-72
2021/11/04 02:27:06;;;;;;;47.33;10.00;;;;;;;;;;4936506;29;20421;-75
2021/11/04 02:29:36;;;;;;;49.42;10.30;;;;;;;;;;4921016;29;20375;-75
2021/11/04 02:32:04;;;;;;;46.00;11.50;;;;;;;;;;4937678;29;20044;-75
2021/11/04 02:34:37;;;;;;;53.90;10.77;;;;;;;;;;4937885;29;20048;-75
2021/11/04 02:37:06;;;;;;;57.50;12.27;;;;;;;;;;4937808;29;20131;-74
2021/11/04 02:39:33;;;;;;;66.97;12.52;;;;;;;;;;4938095;29;20044;-73
2021/11/04 02:42:02;;;;;;;57.15;12.18;;;;;;;;;;4937254;29;20058;-73
2021/11/04 02:44:32;;;;;;;60.05;12.35;;;;;;;;;;4937168;29;20127;-75
2021/11/04 02:46:59;;;;;;;46.60;12.23;;;;;;;;;;4920230;29;20099;-74
2021/11/04 02:49:30;;;;;;;59.20;12.52;;;;;;;;;;4920301;29;20051;-72
2021/11/04 02:52:00;;;;;;;52.35;12.10;;;;;;;;;;4935986;29;20050;-75
2021/11/04 02:54:27;;;;;;;68.47;12.98;;;;;;;;;;4937182;29;20047;-75
2021/11/04 02:56:56;;;;;;;61.35;13.55;;;;;;;;;;4936857;29;20437;-75
2021/11/04 02:59:24;;;;;;;72.85;14.27;;;;;;;;;;4935521;29;20124;-72
2021/11/04 03:01:57;;;;;;;64.38;14.15;;;;;;;;;;4937540;29;20413;-75
2021/11/04 03:04:26;;;;;;;59.97;13.48;;;;;;;;;;4936929;29;20047;-75
2021/11/04 03:06:53;;;;;;;74.53;15.38;;;;;;;;;;4919997;29;20054;-75
2021/11/04 03:09:24;;;;;;;68.82;14.95;;;;;;;;;;4937107;29;20036;-74
2021/11/04 03:11:51;;;;;;;66.65;14.88;;;;;;;;;;4936780;29;20494;-73
2021/11/04 03:14:20;;;;;;;63.65;14.98;;;;;;;;;;4904152;29;20051;-74
2021/11/04 03:16:51;;;;;;;76.95;16.02;;;;;;;;;;4920190;29;20126;-73
2021/11/04 03:19:19;;;;;;;57.38;14.88;;;;;;;;;;4920222;29;20052;-74
2021/11/04 03:21:52;;;;;;;79.05;14.40;;;;;;;;;;4937185;29;20074;-75
2021/11/04 03:24:20;;;;;;;61.70;14.82;;;;;;;;;;4936451;29;20047;-72
2021/11/04 03:26:52;;;;;;;69.47;13.73;;;;;;;;;;4935993;29;20063;-75
2021/11/04 03:29:21;;;;;;;64.47;12.85;;;;;;;;;;4936758;29;20139;-73
2021/11/04 03:31:49;;;;;;;60.78;13.48;;;;;;;;;;4919731;29;20047;-75
2021/11/04 03:34:18;;;;;;;64.53;13.68;;;;;;;;;;4936522;29;20054;-75
2021/11/04 03:36:48;;;;;;;46.45;13.85;;;;;;;;;;4936558;29;20044;-74
2021/11/04 03:39:21;;;;;;;57.40;13.65;;;;;;;;;;4936619;29;20576;-75
2021/11/04 03:41:51;;;;;;;59.50;13.63;;;;;;;;;;4936324;29;20047;-75
2021/11/04 03:44:22;;;;;;;51.70;13.63;;;;;;;;;;4919508;29;20512;-75
2021/11/04 03:46:51;;;;;;;61.13;13.27;;;;;;;;;;4919112;29;20584;-75
2021/11/04 03:49:19;;;;;;;54.28;12.48;;;;;;;;;;4919133;29;20047;-75
2021/11/04 03:51:48;;;;;;;53.13;12.23;;;;;;;;;;4935988;29;20046;-72
2021/11/04 03:54:17;;;;;;;53.88;13.02;;;;;;;;;;4918793;29;20054;-75
2021/11/04 03:56:45;;;;;;;50.75;11.70;;;;;;;;;;4936290;29;20046;-75
2021/11/04 03:59:12;;;;;;;53.92;12.02;;;;;;;;;;4936023;29;20043;-74
2021/11/04 04:01:40;;;;;;;43.63;11.90;;;;;;;;;;4903799;29;20073;-75
2021/11/04 04:04:09;;;;;;;54.30;11.15;;;;;;;;;;4918893;29;20413;-75
2021/11/04 04:06:37;;;;;;;53.05;11.52;;;;;;;;;;4935880;29;20052;-74
2021/11/04 04:09:06;;;;;;;58.47;12.95;;;;;;;;;;4902549;29;20099;-75
2021/11/04 04:11:35;;;;;;;50.72;10.90;;;;;;;;;;4936060;29;20051;-74
2021/11/04 04:14:05;;;;;;;40.15;10.20;;;;;;;;;;4936116;29;20046;-76
2021/11/04 04:16:33;;;;;;;37.92;9.63;;;;;;;;;;4919123;29;20051;-76
2021/11/04 04:19:02;;;;;;;49.70;10.50;;;;;;;;;;4936049;29;20075;-74
2021/11/04 04:21:30;;;;;;;37.75;10.68;;;;;;;;;;4903735;29;20055;-76
2021/11/04 04:23:57;;;;;;;43.90;9.57;;;;;;;;;;4935813;29;20052;-77
2021/11/04 04:26:26;;;;;;;44.78;9.63;;;;;;;;;;4935805;29;20044;-74
2021/11/04 04:28:53;;;;;;;35.25;9.18;;;;;;;;;;4918930;29;20048;-76
2021/11/04 04:31:25;;;;;;;54.05;11.40;;;;;;;;;;4918700;29;20161;-76
2021/11/04 04:33:52;;;;;;;46.92;10.27;;;;;;;;;;4935833;29;20040;-76
2021/11/04 04:36:22;;;;;;;38.83;9.07;;;;;;;;;;4935939;29;20536;-76
2021/11/04 04:38:56;;;;;;;39.92;9.63;;;;;;;;;;4918284;29;20050;-76
2021/11/04 04:41:24;;;;;;;41.70;9.98;;;;;;;;;;4935777;29;20056;-74
2021/11/04 04:43:51;;;;;;;44.47;9.23;;;;;;;;;;4935537;29;20047;-76
2021/11/04 04:46:23;;;;;;;32.67;9.38;;;;;;;;;;4935792;29;20039;-76
2021/11/04 04:48:52;;;;;;;46.20;9.88;;;;;;;;;;4935613;29;20409;-74
2021/11/04 04:51:20;;;;;;;39.65;9.02;;;;;;;;;;4916346;29;20044;-74
2021/11/04 04:53:48;;;;;;;36.38;9.10;;;;;;;;;;4899435;29;20069;-73
2021/11/04 04:56:17;;;;;;;48.22;9.27;;;;;;;;;;4884082;29;20458;-74
2021/11/04 04:58:44;;;;;;;48.13;9.02;;;;;;;;;;4916760;29;20053;-75
2021/11/04 05:01:12;;;;;;;38.80;8.93;;;;;;;;;;4916411;29;20098;-76
2021/11/04 05:03:40;;;;;;;38.42;8.57;;;;;;;;;;4916365;29;20047;-74
2021/11/04 05:06:11;;;;;;;47.08;9.70;;;;;;;;;;4917719;29;20568;-76
2021/11/04 05:08:38;;;;;;;38.65;9.50;;;;;;;;;;4933942;29;20055;-76
2021/11/04 05:11:06;;;;;;;39.95;9.25;;;;;;;;;;4935518;29;20106;-73
2021/11/04 05:13:34;;;;;;;45.35;9.52;;;;;;;;;;4918379;29;20047;-74
2021/11/04 05:16:02;;;;;;;44.72;8.38;;;;;;;;;;4918436;29;20044;-76
2021/11/04 05:18:29;;;;;;;46.90;10.30;;;;;;;;;;4918519;29;20082;-74
2021/11/04 05:20:57;;;;;;;32.40;10.18;;;;;;;;;;4905531;29;20047;-74
2021/11/04 05:23:24;;;;;;;41.15;8.90;;;;;;;;;;4939063;29;20519;-76
2021/11/04 05:25:53;;;;;;;25.70;8.80;;;;;;;;;;4938599;29;20486;-76
2021/11/04 05:28:24;;;;;;;29.83;8.98;;;;;;;;;;4938985;29;20054;-74
2021/11/04 05:30:53;;;;;;;34.13;8.30;;;;;;;;;;4938538;29;20043;-76
2021/11/04 05:33:20;;;;;;;40.97;10.32;;;;;;;;;;4938548;29;20043;-75
2021/11/04 05:35:48;;;;;;;37.10;9.95;;;;;;;;;;4921707;29;20051;-76
2021/11/04 05:38:16;;;;;;;45.58;9.50;;;;;;;;;;4922046;29;20046;-76
2021/11/04 05:40:44;;;;;;;41.67;9.27;;;;;;;;;;4938719;29;20496;-75
2021/11/04 05:43:14;;;;;;;33.20;9.38;;;;;;;;;;4921403;29;20404;-76
2021/11/04 05:45:45;;;;;;;34.88;8.75;;;;;;;;;;4938363;29;20042;-76
2021/11/04 05:48:13;;;;;;;37.67;8.45;;;;;;;;;;4905577;29;20040;-76
2021/11/04 05:50:44;;;;;;;39.60;9.52;;;;;;;;;;4921274;29;20500;-73
2021/11/04 05:53:11;;;;;;;42.70;9.25;;;;;;;;;;4938419;29;20040;-74
2021/11/04 05:55:40;;;;;;;40.85;8.48;;;;;;;;;;4938264;29;20048;-76
2021/11/04 05:58:08;;;;;;;35.25;9.68;;;;;;;;;;4938314;29;20050;-76
2021/11/04 06:00:37;;;;;;;41.45;8.45;;;;;;;;;;4921877;29;20058;-74
2021/11/04 06:03:04;;;;;;;38.80;9.60;;;;;;;;;;4938018;29;20043;-73
2021/11/04 06:05:33;;;;;;;37.58;9.63;;;;;;;;;;4937767;29;20044;-76
2021/11/04 06:08:01;;;;;;;32.63;9.13;;;;;;;;;;4905051;29;20497;-73
2021/11/04 06:10:28;;;;;;;41.75;11.00;;;;;;;;;;4905489;29;20048;-74
2021/11/04 06:13:00;;;;;;;33.55;8.98;;;;;;;;;;4921042;29;20410;-74
2021/11/04 06:15:27;;;;;;;40.53;8.95;;;;;;;;;;4938073;29;20050;-76
2021/11/04 06:17:55;;;;;;;51.15;8.90;;;;;;;;;;4921142;29;20142;-76
2021/11/04 06:20:22;;;;;;;47.42;9.48;;;;;;;;;;4920784;29;20501;-76
2021/11/04 06:22:50;;;;;;;44.28;10.32;;;;;;;;;;4920707;29;20054;-77
2021/11/04 06:25:23;;;;;;;41.90;8.88;;;;;;;;;;4937458;29;20119;-76
2021/11/04 06:27:54;;;;;;;38.72;9.45;;;;;;;;;;4920020;29;20516;-75
2021/11/04 06:30:21;;;;;;;29.08;9.20;;;;;;;;;;4936971;29;20071;-76
2021/11/04 06:32:49;;;;;;;33.85;9.73;;;;;;;;;;4920079;29;20043;-76
2021/11/04 06:35:17;;;;;;;41.40;9.02;;;;;;;;;;4920402;29;20058;-75
2021/11/04 06:37:48;;;;;;;32.95;9.18;;;;;;;;;;4937642;29;20050;-77
2021/11/04 06:40:17;;;;;;;53.47;9.32;;;;;;;;;;4920702;29;20040;-77
2021/11/04 06:42:45;;;;;;;35.78;9.27;;;;;;;;;;4920080;29;20154;-75
2021/11/04 06:45:12;;;;;;;47.80;10.50;;;;;;;;;;4922054;29;20054;-80
2021/11/04 06:47:43;;;;;;;35.55;8.82;;;;;;;;;;4936939;29;20156;-74
2021/11/04 06:50:13;;;;;;;46.50;10.10;;;;;;;;;;4919073;29;20127;-78
2021/11/04 06:52:56;;;;;;;32.25;8.35;;;;;;;;;;4919949;29;20044;-79
2021/11/04 06:55:28;;;;;;;44.28;8.15;;;;;;;;;;4936844;29;20131;-77
2021/11/04 06:58:06;;;;;;;44.75;8.48;;;;;;;;;;4936594;29;20103;-73
2021/11/04 07:00:36;;;;;;;42.40;8.73;;;;;;;;;;4919453;29;20402;-73
2021/11/04 07:03:24;;;;;;;39.00;8.10;;;;;;;;;;4918930;29;20091;-77
2021/11/04 07:06:00;;;;;;;32.60;8.32;;;;;;;;;;4936090;29;20040;-77
2021/11/04 07:08:28;;;;;;;40.28;8.80;;;;;;;;;;4936430;29;20079;-74
2021/11/04 07:10:58;;;;;;;34.35;8.18;;;;;;;;;;4919235;29;20046;-77
2021/11/04 07:13:28;;;;;;;43.40;8.70;;;;;;;;;;4919119;29;20052;-77
2021/11/04 07:15:56;;;;;;;36.63;8.50;;;;;;;;;;4919812;29;20063;-73
2021/11/04 07:18:24;;;;;;;33.78;6.93;;;;;;;;;;4936817;29;20095;-74
2021/11/04 07:21:19;;;;;;;34.75;7.65;;;;;;;;;;4936936;29;20044;-80
2021/11/04 07:23:58;;;;;;;35.08;7.90;;;;;;;;;;4933270;29;20056;-77
2021/11/04 07:26:32;;;;;;;34.88;7.57;;;;;;;;;;4936255;29;20449;-80
2021/11/04 07:29:01;;;;;;;41.88;7.70;;;;;;;;;;4902983;29;20067;-78
2021/11/04 07:31:29;;;;;;;40.95;8.23;;;;;;;;;;4918237;29;20032;-79
2021/11/04 07:33:58;;;;;;;32.17;7.30;;;;;;;;;;4936030;29;20126;-74
2021/11/04 07:36:28;;;;;;;36.47;8.52;;;;;;;;;;4935978;29;20047;-75
2021/11/04 07:38:56;;;;;;;32.53;7.85;;;;;;;;;;4935668;29;20397;-73
2021/11/04 07:41:24;;;;;;;40.78;8.85;;;;;;;;;;4919011;29;20048;-74
2021/11/04 07:43:52;;;;;;;48.35;9.40;;;;;;;;;;4918706;29;20178;-74
2021/11/04 07:46:20;;;;;;;37.00;8.65;;;;;;;;;;4935834;29;20516;-71
2021/11/04 07:48:48;;;;;;;41.20;9.05;;;;;;;;;;4935924;29;20119;-71
2021/11/04 07:51:16;;;;;;;50.55;11.00;;;;;;;;;;4936418;29;20050;-71
2021/11/04 07:53:43;;;;;;;50.42;11.00;;;;;;;;;;4918715;29;20050;-71
2021/11/04 07:56:12;;;;;;;43.97;11.82;;;;;;;;;;4935689;29;20040;-73
2021/11/04 07:58:40;;;;;;;45.85;11.27;;;;;;;;;;4917817;29;20416;-73
2021/11/04 08:01:11;;;;;;;47.30;10.95;;;;;;;;;;4935751;29;20048;-73
2021/11/04 08:03:39;;;;;;;34.47;9.82;;;;;;;;;;4935885;29;20052;-73
2021/11/04 08:06:07;;;;;;;52.22;11.35;;;;;;;;;;4935701;29;20047;-72
2021/11/04 08:08:35;;;;;;;52.10;11.13;;;;;;;;;;4935655;29;20040;-73
2021/11/04 08:11:06;;;;;;;34.80;9.18;;;;;;;;;;4934382;29;20046;-73
2021/11/04 08:13:33;;;;;;;47.13;10.90;;;;;;;;;;4917135;29;20039;-73
2021/11/04 08:16:01;;;;;;;40.92;9.48;;;;;;;;;;4934157;29;20047;-73
2021/11/04 08:18:28;;;;;;;46.83;10.25;;;;;;;;;;4935440;29;20417;-73
2021/11/04 08:20:56;;;;;;;43.50;9.38;;;;;;;;;;5008202;23;21420;-74
2021/11/04 08:23:25;;;;;;;47.67;10.50;;;;;;;;;;4936595;29;20039;-76
2021/11/04 08:25:54;;;;;;;47.90;10.73;;;;;;;;;;4936736;29;20537;-78
2021/11/04 08:28:22;;;;;;;44.55;11.10;;;;;;;;;;4937305;29;20416;-74
2021/11/04 08:30:54;;;;;;;54.60;10.65;;;;;;;;;;4936515;29;20051;-74
2021/11/04 08:33:21;;;;;;;44.90;11.02;;;;;;;;;;4953369;28;20039;-74
2021/11/04 08:35:49;;;;;;;45.17;10.02;;;;;;;;;;4954483;29;20050;-77
2021/11/04 08:38:20;;;;;;;49.50;10.48;;;;;;;;;;4937091;29;20047;-76
2021/11/04 08:40:47;;;;;;;44.72;11.23;;;;;;;;;;4936742;29;20043;-76
2021/11/04 08:43:18;;;;;;;45.65;11.43;;;;;;;;;;4954464;29;20058;-77
2021/11/04 08:45:46;;;;;;;55.50;11.32;;;;;;;;;;4920832;29;20412;-76
2021/11/04 08:48:17;;;;;;;54.45;11.32;;;;;;;;;;4937070;29;20035;-74
2021/11/04 08:50:50;;;;;;;52.20;10.55;;;;;;;;;;4937026;29;20384;-74
2021/11/04 08:53:18;;;;;;;49.33;9.73;;;;;;;;;;4954582;28;20039;-83
2021/11/04 08:55:46;;;;;;;40.58;9.50;;;;;;;;;;4958653;29;20135;-75
2021/11/04 08:58:15;;;;;;;42.95;9.48;;;;;;;;;;4958008;29;20485;-76
2021/11/04 09:00:42;;;;;;;39.13;9.10;;;;;;;;;;4940901;29;20051;-74
2021/11/04 09:03:11;;;;;;;51.90;8.07;;;;;;;;;;4958243;29;20039;-75
2021/11/04 09:05:39;;;;;;;44.20;8.10;;;;;;;;;;4940702;29;20050;-75
2021/11/04 09:08:07;;;;;;;38.58;8.38;;;;;;;;;;4957718;29;20082;-75
2021/11/04 09:10:35;;;;;;;37.60;8.07;;;;;;;;;;4940151;29;20439;-74
2021/11/04 09:13:03;;;;;;;35.90;7.75;;;;;;;;;;4957404;29;20046;-75
2021/11/04 09:15:32;;;;;;;34.28;7.75;;;;;;;;;;4956419;29;20053;-76
2021/11/04 09:18:01;;;;;;;37.55;8.02;;;;;;;;;;4940321;29;20385;-74
2021/11/04 09:20:28;;;;;;;34.35;8.23;;;;;;;;;;4941095;29;20138;-73
2021/11/04 09:22:56;;;;;;;30.90;7.45;;;;;;;;;;4957653;29;20058;-76
2021/11/04 09:25:24;;;;;;;39.25;8.05;;;;;;;;;;4940830;29;20046;-75
2021/11/04 09:27:53;;;;;;;33.83;7.57;;;;;;;;;;4956852;29;20039;-74
2021/11/04 09:30:20;;;;;;;35.30;7.78;;;;;;;;;;4940273;29;20043;-75
2021/11/04 09:32:50;;;;;;;37.50;6.72;;;;;;;;;;4957348;28;20071;-74
2021/11/04 09:35:20;;;;;;;32.13;7.93;;;;;;;;;;4957352;29;20046;-73
2021/11/04 09:37:51;;;;;;;36.30;7.40;;;;;;;;;;4957121;29;20114;-73
2021/11/04 09:40:22;;;;;;;30.65;6.82;;;;;;;;;;4957518;29;20070;-73
2021/11/04 09:42:50;;;;;;;27.60;5.70;;;;;;;;;;4956828;29;20129;-74
2021/11/04 09:45:19;;;;;;;57.40;8.25;;;;;;;;;;4957352;29;20071;-72
2021/11/04 09:47:46;;;;;;;38.95;7.30;;;;;;;;;;4957555;29;20046;-73
2021/11/04 09:50:19;;;;;;;44.25;7.40;;;;;;;;;;4957518;28;20043;-75
2021/11/04 09:52:53;;;;;;;39.50;7.47;;;;;;;;;;4940222;29;20106;-74
2021/11/04 09:55:22;;;;;;;36.47;6.63;;;;;;;;;;4955991;29;20039;-74
2021/11/04 09:57:51;;;;;;;32.05;6.32;;;;;;;;;;4956911;29;20081;-74
2021/11/04 10:00:20;;;;;;;31.63;6.18;;;;;;;;;;4957509;29;20412;-75
2021/11/04 10:02:59;;;;;;;35.45;6.82;;;;;;;;;;4939895;29;20140;-73
2021/11/04 10:05:27;;;;;;;34.20;7.18;;;;;;;;;;4955917;28;20129;-75
2021/11/04 10:07:54;;;;;;;35.42;6.82;;;;;;;;;;4939358;29;20390;-76
2021/11/04 10:10:22;;;;;;;35.15;6.28;;;;;;;;;;4939455;29;20384;-71
2021/11/04 10:13:05;;;;;;;32.55;6.43;;;;;;;;;;4939042;28;20046;-74
2021/11/04 10:15:34;;;;;;;38.65;6.68;;;;;;;;;;4956749;29;20489;-77
2021/11/04 10:18:18;;;;;;;38.85;6.65;;;;;;;;;;4956486;29;20404;-74
2021/11/04 10:20:53;;;;;;;37.50;8.20;;;;;;;;;;4958022;29;20076;-81
2021/11/04 10:23:22;;;;;;;29.65;6.00;;;;;;;;;;4963311;29;20121;-81
2021/11/04 10:25:50;;;;;;;37.13;7.18;;;;;;;;;;4956768;29;20053;-74
2021/11/04 10:28:28;;;;;;;33.35;6.20;;;;;;;;;;4943445;29;20443;-82
2021/11/04 10:30:59;;;;;;;47.15;6.88;;;;;;;;;;4957152;29;20413;-75
2021/11/04 10:33:28;;;;;;;35.17;6.50;;;;;;;;;;4939682;29;20489;-77
2021/11/04 10:35:59;;;;;;;36.90;7.07;;;;;;;;;;4937969;29;20066;-77
2021/11/04 10:38:29;;;;;;;29.50;6.40;;;;;;;;;;4937491;29;20114;-77
2021/11/04 10:41:02;;;;;;;28.08;6.18;;;;;;;;;;4955308;29;20110;-77
2021/11/04 10:43:30;;;;;;;33.85;5.90;;;;;;;;;;4938939;29;20535;-77
2021/11/04 10:46:24;;;;;;;34.95;5.90;;;;;;;;;;4938776;29;20043;-75
2021/11/04 10:48:57;;;;;;;32.17;6.10;;;;;;;;;;4952927;29;20127;-75
2021/11/04 10:51:25;;;;;;;32.28;5.78;;;;;;;;;;4938655;29;20134;-75
2021/11/04 10:53:57;;;;;;;30.83;6.68;;;;;;;;;;4955889;29;20043;-75
2021/11/04 10:56:29;;;;;;;41.80;7.38;;;;;;;;;;4955412;29;20053;-78
2021/11/04 10:59:08;;;;;;;31.65;7.15;;;;;;;;;;4955115;29;20449;-76
2021/11/04 11:01:41;;;;;;;36.05;6.53;;;;;;;;;;4938417;29;20073;-81
2021/11/04 11:04:11;;;;;;;43.67;7.70;;;;;;;;;;4955904;29;20094;-76
2021/11/04 11:06:42;;;;;;;34.28;7.82;;;;;;;;;;4955325;29;20054;-77
2021/11/04 11:09:20;;;;;;;34.42;7.20;;;;;;;;;;4955831;29;20501;-77
2021/11/04 11:11:48;;;;;;;29.13;6.30;;;;;;;;;;4938449;29;20497;-78
2021/11/04 11:14:17;;;;;;;33.45;6.82;;;;;;;;;;4938433;29;20043;-77
2021/11/04 11:16:45;;;;;;;29.77;5.95;;;;;;;;;;4938262;29;20051;-81
2021/11/04 11:19:17;;;;;;;33.42;6.68;;;;;;;;;;4938102;29;20459;-76
2021/11/04 11:21:51;;;;;;;28.05;6.03;;;;;;;;;;4955297;29;20059;-77
2021/11/04 11:24:30;;;;;;;36.47;6.75;;;;;;;;;;4922107;29;20420;-78
2021/11/04 11:26:59;;;;;;;32.33;7.35;;;;;;;;;;4955041;29;20054;-78
2021/11/04 11:29:36;;;;;;;32.83;6.13;;;;;;;;;;4955393;29;20097;-78
2021/11/04 11:32:22;;;;;;;38.63;7.55;;;;;;;;;;4955213;29;20067;-75
2021/11/04 11:34:50;;;;;;;39.33;6.88;;;;;;;;;;4938271;29;20046;-80
2021/11/04 11:37:23;;;;;;;34.28;7.07;;;;;;;;;;4938378;29;20047;-77
2021/11/04 11:40:16;;;;;;;37.08;6.63;;;;;;;;;;4954926;29;20043;-78
2021/11/04 11:42:54;;;;;;;35.70;7.45;;;;;;;;;;4934410;29;20051;-75
2021/11/04 11:45:22;;;;;;;41.00;6.75;;;;;;;;;;4955340;29;20074;-77
2021/11/04 11:47:49;;;;;;;36.45;6.40;;;;;;;;;;4954672;29;20051;-77
2021/11/04 11:50:20;;;;;;;47.55;7.65;;;;;;;;;;4937867;29;20058;-76
2021/11/04 11:52:50;;;;;;;34.13;6.80;;;;;;;;;;4954700;29;20047;-76
2021/11/04 11:55:23;;;;;;;36.63;7.10;;;;;;;;;;4954978;29;20040;-76
2021/11/04 11:58:11;;;;;;;35.42;6.70;;;;;;;;;;4937867;29;20055;-78
2021/11/04 12:00:58;;;;;;;28.25;6.63;;;;;;;;;;4937586;29;20039;-77
2021/11/04 12:03:36;;;;;;;28.85;6.07;;;;;;;;;;4954904;29;20146;-80
2021/11/04 12:06:04;;;;;;;30.23;6.53;;;;;;;;;;4937463;29;20082;-76
2021/11/04 12:08:39;;;;;;;34.88;7.07;;;;;;;;;;4954292;29;20091;-76
2021/11/04 12:11:07;;;;;;;29.98;6.75;;;;;;;;;;4954244;29;20412;-78
2021/11/04 12:13:39;;;;;;;29.50;6.72;;;;;;;;;;4954882;29;20042;-78
2021/11/04 12:16:21;;;;;;;32.42;6.22;;;;;;;;;;4937335;29;20070;-78
2021/11/04 12:18:53;;;;;;;40.95;6.93;;;;;;;;;;4937334;29;20043;-75
2021/11/04 12:21:23;;;;;;;30.60;6.90;;;;;;;;;;4936825;29;20058;-80
2021/11/04 12:23:52;;;;;;;41.92;6.50;;;;;;;;;;4921426;29;20043;-78
2021/11/04 12:26:36;;;;;;;32.42;6.50;;;;;;;;;;4936638;29;20085;-78
2021/11/04 12:29:07;;;;;;;42.10;7.25;;;;;;;;;;4936866;29;20066;-77
2021/11/04 12:31:37;;;;;;;32.58;6.32;;;;;;;;;;4954599;29;20468;-77
2021/11/04 12:34:05;;;;;;;32.70;6.53;;;;;;;;;;4937971;29;20138;-78
2021/11/04 12:36:37;;;;;;;29.88;6.32;;;;;;;;;;4936846;29;20520;-75
2021/11/04 12:39:05;;;;;;;;;;;;;;;;;;4955061;29;20059;-81
2021/11/04 12:41:33;;;;;;;44.25;8.32;;;;;;;;;;4954796;29;19922;-81
2021/11/04 12:44:10;;;;;;;38.28;7.55;;;;;;;;;;4937184;29;20046;-77
2021/11/04 12:46:38;;;;;;;34.67;7.63;;;;;;;;;;4921483;29;20130;-77
2021/11/04 12:49:06;;;;;;;32.53;6.50;;;;;;;;;;4954528;29;20126;-78
2021/11/04 12:51:42;;;;;;;39.50;6.97;;;;;;;;;;4937022;29;20053;-78
2021/11/04 12:54:12;;;;;;;45.47;6.60;;;;;;;;;;4954295;29;20497;-76
2021/11/04 12:56:52;;;;;;;36.03;7.00;;;;;;;;;;4954726;29;20118;-77
2021/11/04 12:59:32;;;;;;;31.25;6.53;;;;;;;;;;4937107;29;20039;-76
2021/11/04 13:02:08;;;;;;;42.47;7.30;;;;;;;;;;4954178;29;20479;-78
2021/11/04 13:04:37;;;;;;;31.95;6.15;;;;;;;;;;4937651;29;20067;-81
2021/11/04 13:07:07;;;;;;;33.17;7.53;;;;;;;;;;4936173;29;20043;-81
2021/11/04 13:09:42;;;;;;;33.20;6.82;;;;;;;;;;4954278;29;20142;-77
2021/11/04 13:12:11;;;;;;;34.67;7.07;;;;;;;;;;4947459;28;20519;-80
2021/11/04 13:14:53;;;;;;;35.47;7.30;;;;;;;;;;4949835;29;20046;-78
2021/11/04 13:17:29;;;;;;;34.63;6.60;;;;;;;;;;4934620;29;20047;-78
2021/11/04 13:20:09;;;;;;;39.58;7.78;;;;;;;;;;4936238;29;20048;-81
2021/11/04 13:22:42;;;;;;;34.33;6.95;;;;;;;;;;4915273;29;20066;-77
2021/11/04 13:25:12;;;;;;;39.80;7.00;;;;;;;;;;4939256;29;20043;-81
2021/11/04 13:27:41;;;;;;;30.92;6.57;;;;;;;;;;4954120;29;20117;-77
2021/11/04 13:30:11;;;;;;;39.20;7.30;;;;;;;;;;4936417;29;20050;-78
2021/11/04 13:32:59;;;;;;;49.20;7.65;;;;;;;;;;4954301;28;20413;-78
2021/11/04 13:35:32;;;;;;;30.42;7.30;;;;;;;;;;4953640;29;20054;-77
2021/11/04 13:38:10;;;;;;;31.33;6.70;;;;;;;;;;4937059;29;20421;-77
2021/11/04 13:40:44;;;;;;;38.72;6.93;;;;;;;;;;4955329;28;20397;-79
2021/11/04 13:43:20;;;;;;;33.00;7.28;;;;;;;;;;4941074;29;20611;-77
2021/11/04 13:45:48;;;;;;;31.63;6.75;;;;;;;;;;4940483;29;20070;-82
2021/11/04 13:48:15;;;;;;;39.00;6.95;;;;;;;;;;4957704;29;20511;-78
2021/11/04 13:50:45;;;;;;;31.42;6.85;;;;;;;;;;4956987;29;20035;-78
2021/11/04 13:53:22;;;;;;;35.63;6.57;;;;;;;;;;4956718;29;20043;-78
2021/11/04 13:55:54;;;;;;;41.05;6.60;;;;;;;;;;4939643;29;20469;-78
2021/11/04 13:58:42;;;;;;;35.42;6.65;;;;;;;;;;4957267;29;20061;-78
2021/11/04 14:01:11;;;;;;;37.42;6.93;;;;;;;;;;4934544;29;20134;-78
2021/11/04 14:03:41;;;;;;;33.72;6.68;;;;;;;;;;4937000;29;20428;-78
2021/11/04 14:06:09;;;;;;;38.05;7.45;;;;;;;;;;4954904;29;20071;-78
2021/11/04 14:08:40;;;;;;;37.13;7.05;;;;;;;;;;4937967;29;20493;-78
2021/11/04 14:11:34;;;;;;;36.40;7.03;;;;;;;;;;4936935;29;20035;-77
2021/11/04 14:14:11;;;;;;;32.22;6.55;;;;;;;;;;4964591;28;20059;-83
2021/11/04 14:16:43;;;;;;;45.08;7.38;;;;;;;;;;4971273;28;20045;-77
2021/11/04 14:19:12;;;;;;;34.50;6.68;;;;;;;;;;4973251;28;20042;-80
2021/11/04 14:21:44;;;;;;;25.50;6.40;;;;;;;;;;4957669;28;20055;-81
2021/11/04 14:24:14;;;;;;;29.95;7.38;;;;;;;;;;4974447;28;20118;-78
2021/11/04 14:26:44;;;;;;;29.35;6.80;;;;;;;;;;4971633;28;20070;-81
2021/11/04 14:29:11;;;;;;;37.95;7.03;;;;;;;;;;4955602;28;20050;-80
2021/11/04 14:31:41;;;;;;;29.48;6.68;;;;;;;;;;4956025;28;20043;-77
2021/11/04 14:34:08;;;;;;;39.25;7.18;;;;;;;;;;4956347;29;20065;-79
2021/11/04 14:36:36;;;;;;;34.35;6.88;;;;;;;;;;4957062;29;20498;-80
2021/11/04 14:39:04;;;;;;;32.15;7.15;;;;;;;;;;4956559;29;20043;-78
2021/11/04 14:41:32;;;;;;;28.95;7.43;;;;;;;;;;4939193;29;20520;-78
2021/11/04 14:43:59;;;;;;;42.95;7.80;;;;;;;;;;4956724;29;20039;-79
2021/11/04 14:46:39;;;;;;;33.17;6.95;;;;;;;;;;4957442;29;20043;-77